createdAt,value
2017-08-05T00:02:32.178Z,99973.16
2017-08-05T00:05:33.699Z,99956.61
2017-08-05T00:08:35.200Z,99960.25
2017-08-05T00:11:36.744Z,99961.20
2017-08-05T00:14:38.886Z,99964.78
2017-08-05T00:17:40.919Z,99972.73
2017-08-05T00:20:43.072Z,99971.05
2017-08-05T00:23:45.170Z,99964.55
2017-08-05T00:26:46.706Z,99972.48
2017-08-05T00:29:49.006Z,99984.02
2017-08-05T00:32:50.500Z,99992.70
2017-08-05T00:35:52.036Z,99972.00
2017-08-05T00:38:53.494Z,99968.09
2017-08-05T00:41:55.191Z,99961.25
2017-08-05T00:44:57.427Z,99962.30
2017-08-05T00:47:59.010Z,99963.07
2017-08-05T00:51:00.618Z,99957.83
2017-08-05T00:54:02.187Z,99956.65
2017-08-05T00:57:03.744Z,99966.02
2017-08-05T01:00:05.256Z,99972.69
2017-08-05T01:03:07.583Z,99973.69
2017-08-05T01:06:09.126Z,99964.03
2017-08-05T01:09:11.357Z,99954.39
2017-08-05T01:12:12.887Z,99956.27
2017-08-05T01:15:14.432Z,99941.00
2017-08-05T01:18:16.033Z,99953.58
2017-08-05T01:21:17.565Z,99946.77
2017-08-05T01:24:19.103Z,99948.29
2017-08-05T01:27:20.661Z,99938.23
2017-08-05T01:30:22.415Z,99934.85
2017-08-05T01:33:23.951Z,99933.55
2017-08-05T01:36:25.660Z,99933.37
2017-08-05T01:39:27.932Z,99938.70
2017-08-05T01:42:30.328Z,99938.16
2017-08-05T01:45:31.851Z,99935.11
2017-08-05T01:48:34.184Z,99925.05
2017-08-05T01:51:35.780Z,99938.88
2017-08-05T01:54:37.312Z,99949.50
2017-08-05T01:57:38.962Z,99951.57
2017-08-05T02:00:40.476Z,99955.74
2017-08-05T02:03:42.168Z,99961.59
2017-08-05T02:06:43.644Z,99964.23
2017-08-05T02:09:45.191Z,99960.94
2017-08-05T02:12:46.692Z,99970.78
2017-08-05T02:15:48.928Z,99976.30
2017-08-05T02:18:50.498Z,99978.37
2017-08-05T02:21:52.770Z,99967.53
2017-08-05T02:24:55.006Z,99956.59
2017-08-05T02:27:56.508Z,99957.55
2017-08-05T02:30:59.007Z,99956.82
2017-08-05T02:34:00.551Z,99963.45
2017-08-05T02:37:02.070Z,99964.35
2017-08-05T02:40:03.591Z,99969.36
2017-08-05T02:43:05.163Z,99958.95
2017-08-05T02:46:06.608Z,99979.36
2017-08-05T02:49:08.090Z,99973.55
2017-08-05T02:52:09.594Z,99974.50
2017-08-05T02:55:11.111Z,99979.44
2017-08-05T02:58:13.407Z,99979.20
2017-08-05T03:01:14.996Z,99981.38
2017-08-05T03:04:16.627Z,99992.45
2017-08-05T03:07:18.155Z,99986.94
2017-08-05T03:10:20.471Z,99981.00
2017-08-05T03:13:21.953Z,99966.23
2017-08-05T03:16:23.465Z,99969.47
2017-08-05T03:19:24.992Z,99961.10
2017-08-05T03:22:27.305Z,99962.55
2017-08-05T03:25:29.063Z,99963.75
2017-08-05T03:28:30.555Z,99967.24
2017-08-05T03:31:32.076Z,99974.87
2017-08-05T03:34:33.602Z,99965.00
2017-08-05T03:37:35.159Z,99962.80
2017-08-05T03:40:36.668Z,99963.98
2017-08-05T03:43:38.253Z,99964.67
2017-08-05T03:46:40.581Z,99945.16
2017-08-05T03:49:42.178Z,99937.76
2017-08-05T03:52:44.487Z,99944.20
2017-08-05T03:55:46.042Z,99943.18
2017-08-05T03:58:47.563Z,99918.47
2017-08-05T04:01:49.099Z,99921.89
2017-08-05T04:04:50.703Z,99917.57
2017-08-05T04:07:52.247Z,99923.28
2017-08-05T04:10:53.808Z,99926.72
2017-08-05T04:13:55.391Z,99916.52
2017-08-05T04:16:57.020Z,99942.45
2017-08-05T04:19:58.757Z,99939.59
2017-08-05T04:23:01.080Z,99926.20
2017-08-05T04:26:02.607Z,99924.59
2017-08-05T04:29:04.199Z,99926.25
2017-08-05T04:32:05.780Z,99922.82
2017-08-05T04:35:07.443Z,99920.88
2017-08-05T04:38:09.791Z,99926.98
2017-08-05T04:41:11.487Z,99936.98
2017-08-05T04:44:13.021Z,99926.86
2017-08-05T04:47:14.548Z,99912.49
2017-08-05T04:50:16.111Z,99915.84
2017-08-05T04:53:17.668Z,99905.00
2017-08-05T04:56:19.218Z,99911.28
2017-08-05T04:59:20.762Z,99900.55
2017-08-05T05:02:22.335Z,99904.09
2017-08-05T05:05:23.919Z,99906.05
2017-08-05T05:08:26.293Z,99907.10
2017-08-05T05:11:27.849Z,99912.78
2017-08-05T05:14:29.408Z,99912.08
2017-08-05T05:17:31.716Z,99904.28
2017-08-05T05:20:33.298Z,99910.42
2017-08-05T05:23:34.875Z,99911.69
2017-08-05T05:26:36.477Z,99914.22
2017-08-05T05:29:38.011Z,99909.66
2017-08-05T05:32:40.278Z,99916.91
2017-08-05T05:35:42.539Z,99899.30
2017-08-05T05:38:44.113Z,99897.48
2017-08-05T05:41:46.400Z,99883.03
2017-08-05T05:44:47.951Z,99900.84
2017-08-05T05:47:49.484Z,99901.35
2017-08-05T05:50:51.023Z,99901.66
2017-08-05T05:53:52.585Z,99894.01
2017-08-05T05:56:54.130Z,99887.66
2017-08-05T05:59:55.672Z,99886.89
2017-08-05T06:02:57.183Z,99893.34
2017-08-05T06:05:58.728Z,99884.59
2017-08-05T06:09:00.456Z,99875.51
2017-08-05T06:12:01.956Z,99874.08
2017-08-05T06:15:03.540Z,99886.00
2017-08-05T06:18:05.091Z,99889.34
2017-08-05T06:21:06.654Z,99902.42
2017-08-05T06:24:08.223Z,99910.22
2017-08-05T06:27:09.769Z,99904.48
2017-08-05T06:30:11.311Z,99905.49
2017-08-05T06:33:12.839Z,99904.87
2017-08-05T06:36:14.478Z,99874.03
2017-08-05T06:39:16.695Z,99882.36
2017-08-05T06:42:18.282Z,99882.47
2017-08-05T06:45:19.749Z,99888.84
2017-08-05T06:48:21.965Z,99895.98
2017-08-05T06:51:23.460Z,99904.05
2017-08-05T06:54:24.950Z,99892.08
2017-08-05T06:57:26.449Z,99895.13
2017-08-05T07:00:27.970Z,99877.80
2017-08-05T07:03:29.463Z,99878.36
2017-08-05T07:06:30.926Z,99888.56
2017-08-05T07:09:33.107Z,99884.71
2017-08-05T07:12:34.629Z,99898.45
2017-08-05T07:15:36.052Z,99902.90
2017-08-05T07:18:37.568Z,99891.02
2017-08-05T07:21:39.234Z,99884.00
2017-08-05T07:24:41.475Z,99892.25
2017-08-05T07:27:42.958Z,99892.30
2017-08-05T07:30:45.571Z,99891.11
2017-08-05T07:33:47.000Z,99890.14
2017-08-05T07:36:48.372Z,99884.03
2017-08-05T07:39:49.780Z,99888.61
2017-08-05T07:42:51.293Z,99893.98
2017-08-05T07:45:52.692Z,99876.88
2017-08-05T07:48:54.968Z,99862.19
2017-08-05T07:51:57.076Z,99869.47
2017-08-05T07:54:58.541Z,99876.34
2017-08-05T08:01:08.176Z,99855.50
2017-08-05T08:04:09.535Z,99863.27
2017-08-05T08:07:10.933Z,99874.23
2017-08-05T08:10:12.361Z,99870.30
2017-08-05T08:13:13.712Z,99874.13
2017-08-05T08:16:15.121Z,99873.94
2017-08-05T08:19:16.510Z,99875.33
2017-08-05T08:22:17.909Z,99874.82
2017-08-05T08:25:20.038Z,99870.45
2017-08-05T08:28:21.511Z,99873.61
2017-08-05T08:31:23.038Z,99876.91
2017-08-05T08:34:24.463Z,99869.61
2017-08-05T08:37:25.829Z,99835.39
2017-08-05T08:40:27.255Z,99870.57
2017-08-05T08:43:29.351Z,99876.90
2017-08-05T08:46:30.835Z,99878.84
2017-08-05T08:49:32.262Z,99882.15
2017-08-05T08:52:33.656Z,99877.73
2017-08-05T08:55:35.845Z,99887.03
2017-08-05T08:58:37.983Z,99882.42
2017-08-05T09:01:39.416Z,99883.36
2017-08-05T09:04:40.845Z,99878.71
2017-08-05T09:07:42.378Z,99884.26
2017-08-05T09:10:43.748Z,99881.43
2017-08-05T09:13:45.212Z,99873.42
2017-08-05T09:16:46.590Z,99872.02
2017-08-05T09:19:47.990Z,99878.41
2017-08-05T09:22:50.405Z,99885.08
2017-08-05T09:25:51.879Z,99886.98
2017-08-05T09:28:53.246Z,99887.13
2017-08-05T09:31:55.377Z,99891.80
2017-08-05T09:34:57.235Z,99891.53
2017-08-05T09:37:58.817Z,99893.94
2017-08-05T09:41:00.245Z,99898.33
2017-08-05T09:44:01.888Z,99873.09
2017-08-05T09:47:03.272Z,99870.13
2017-08-05T09:50:04.829Z,99880.48
2017-08-05T09:53:06.328Z,99894.19
2017-08-05T09:56:07.775Z,99902.28
2017-08-05T09:59:09.155Z,99911.75
2017-08-05T10:02:10.577Z,99897.05
2017-08-05T10:05:12.000Z,99906.16
2017-08-05T10:08:14.100Z,99907.10
2017-08-05T10:11:15.539Z,99917.77
2017-08-05T10:14:19.087Z,99909.70
2017-08-05T10:17:20.578Z,99921.55
2017-08-05T10:20:22.720Z,99935.13
2017-08-05T10:23:24.204Z,99940.93
2017-08-05T10:26:26.364Z,99957.77
2017-08-05T10:29:27.871Z,99949.97
2017-08-05T10:32:29.278Z,99952.27
2017-08-05T10:35:31.415Z,99946.00
2017-08-05T10:38:32.875Z,99954.95
2017-08-05T10:41:34.401Z,99962.22
2017-08-05T10:44:35.916Z,99957.16
2017-08-05T10:47:37.322Z,99944.55
2017-08-05T10:50:38.834Z,99956.66
2017-08-05T10:53:40.300Z,99948.77
2017-08-05T10:56:41.816Z,99970.02
2017-08-05T10:59:44.044Z,99966.05
2017-08-05T11:02:45.480Z,99954.52
2017-08-05T11:05:46.885Z,99957.19
2017-08-05T11:08:49.165Z,99961.20
2017-08-05T11:11:51.504Z,99958.67
2017-08-05T11:14:52.865Z,99965.82
2017-08-05T11:17:54.267Z,99962.47
2017-08-05T11:20:55.648Z,99966.56
2017-08-05T11:23:57.048Z,99970.86
2017-08-05T11:26:59.174Z,99968.86
2017-08-05T11:30:00.595Z,99973.60
2017-08-05T11:33:02.229Z,99969.77
2017-08-05T11:36:04.412Z,99963.34
2017-08-05T11:39:05.825Z,99964.73
2017-08-05T11:42:07.202Z,99965.66
2017-08-05T11:45:09.452Z,99971.66
2017-08-05T11:48:10.857Z,99972.58
2017-08-05T11:51:12.327Z,99968.25
2017-08-05T11:54:13.807Z,99969.64
2017-08-05T11:57:16.009Z,99970.53
2017-08-05T12:00:17.465Z,99986.61
2017-08-05T12:03:18.859Z,99980.56
2017-08-05T12:06:20.241Z,99986.27
2017-08-05T12:09:22.356Z,99982.59
2017-08-05T12:12:24.128Z,99984.09
2017-08-05T12:15:25.474Z,99982.06
2017-08-05T12:18:26.853Z,99992.70
2017-08-05T12:21:28.268Z,99986.86
2017-08-05T12:24:29.732Z,99989.67
2017-08-05T12:27:31.152Z,99987.73
2017-08-05T12:30:32.844Z,99994.28
2017-08-05T12:33:34.213Z,100005.25
2017-08-05T12:36:35.616Z,99995.05
2017-08-05T12:39:37.067Z,99995.84
2017-08-05T12:42:38.492Z,99996.14
2017-08-05T12:45:40.657Z,100006.65
2017-08-05T12:48:42.756Z,100009.49
2017-08-05T12:51:44.144Z,100003.73
2017-08-05T12:54:45.529Z,100004.25
2017-08-05T12:57:47.676Z,100007.91
2017-08-05T13:00:49.102Z,100011.67
2017-08-05T13:03:50.502Z,100022.43
2017-08-05T13:06:53.093Z,100022.69
2017-08-05T13:09:54.505Z,100021.17
2017-08-05T13:12:55.861Z,100019.95
2017-08-05T13:15:57.330Z,100019.77
2017-08-05T13:18:59.564Z,100021.33
2017-08-05T13:22:01.047Z,100031.64
2017-08-05T13:25:03.377Z,100033.05
2017-08-05T13:28:04.719Z,100022.87
2017-08-05T13:31:06.200Z,100032.89
2017-08-05T13:34:07.605Z,100029.03
2017-08-05T13:37:09.012Z,100035.22
2017-08-05T13:40:10.381Z,100046.58
2017-08-05T13:43:12.539Z,100048.02
2017-08-05T13:46:14.713Z,100044.30
2017-08-05T13:49:16.899Z,100056.05
2017-08-05T13:52:18.319Z,100057.75
2017-08-05T13:55:19.693Z,100057.92
2017-08-05T13:58:21.808Z,100057.11
2017-08-05T14:01:23.212Z,100065.02
2017-08-05T14:04:25.416Z,100056.58
2017-08-05T14:07:26.803Z,100060.00
2017-08-05T14:10:28.188Z,100070.44
2017-08-05T14:13:30.438Z,100066.11
2017-08-05T14:16:31.873Z,100069.70
2017-08-05T14:19:33.277Z,100072.57
2017-08-05T14:22:34.632Z,100067.17
2017-08-05T14:25:36.022Z,100067.27
2017-08-05T14:28:37.372Z,100067.03
2017-08-05T14:31:38.775Z,100064.82
2017-08-05T14:34:40.134Z,100055.85
2017-08-05T14:37:41.558Z,100060.97
2017-08-05T14:40:43.668Z,100056.03
2017-08-05T14:43:45.082Z,100065.05
2017-08-05T14:46:47.349Z,100067.24
2017-08-05T14:49:49.450Z,100066.45
2017-08-05T14:52:50.869Z,100070.62
2017-08-05T14:55:52.966Z,100059.89
2017-08-05T14:58:54.353Z,100056.09
2017-08-05T15:01:55.702Z,100062.36
2017-08-05T15:04:57.102Z,100058.22
2017-08-05T15:07:58.913Z,100060.31
2017-08-05T15:11:00.266Z,100061.03
2017-08-05T15:14:01.639Z,100063.13
2017-08-05T15:17:03.015Z,100066.56
2017-08-05T15:20:04.437Z,100059.22
2017-08-05T15:23:05.904Z,100067.55
2017-08-05T15:26:08.029Z,100079.23
2017-08-05T15:29:09.519Z,100079.77
2017-08-05T15:32:10.858Z,100109.41
2017-08-05T15:35:12.269Z,100114.14
2017-08-05T15:38:15.490Z,100121.66
2017-08-05T15:41:17.921Z,100124.98
2017-08-05T15:44:19.315Z,100130.41
2017-08-05T15:47:20.903Z,100131.48
2017-08-05T15:50:22.408Z,100135.00
2017-08-05T15:53:23.785Z,100143.87
2017-08-05T15:56:25.274Z,100145.44
2017-08-05T15:59:27.830Z,100153.03
2017-08-05T16:02:30.011Z,100146.75
2017-08-05T16:05:32.020Z,100157.34
2017-08-05T16:08:35.614Z,100155.69
2017-08-05T16:11:37.021Z,100144.13
2017-08-05T16:14:38.469Z,100159.89
2017-08-05T16:17:42.734Z,100164.77
2017-08-05T16:20:45.366Z,100168.93
2017-08-05T16:23:46.783Z,100166.23
2017-08-05T16:26:48.135Z,100163.28
2017-08-05T16:29:49.539Z,100161.02
2017-08-05T16:32:50.910Z,100164.02
2017-08-05T16:35:53.027Z,100164.76
2017-08-05T16:38:54.389Z,100164.28
2017-08-05T16:41:55.818Z,100176.19
2017-08-05T16:44:57.175Z,100181.14
2017-08-05T16:47:58.632Z,100177.52
2017-08-05T16:51:00.114Z,100173.80
2017-08-05T16:54:02.285Z,100180.61
2017-08-05T16:57:04.385Z,100183.13
2017-08-05T17:00:05.770Z,100191.43
2017-08-05T17:03:07.185Z,100176.88
2017-08-05T17:06:08.601Z,100183.13
2017-08-05T17:09:09.995Z,100188.03
2017-08-05T17:12:11.381Z,100184.69
2017-08-05T17:15:12.776Z,100194.86
2017-08-05T17:18:14.147Z,100201.45
2017-08-05T17:21:15.565Z,100213.52
2017-08-05T17:24:17.708Z,100212.40
2017-08-05T17:27:19.111Z,100207.52
2017-08-05T17:30:20.525Z,100209.18
2017-08-05T17:33:21.951Z,100224.06
2017-08-05T17:36:23.314Z,100222.73
2017-08-05T17:39:24.729Z,100234.30
2017-08-05T17:42:26.316Z,100240.36
2017-08-05T17:45:27.705Z,100238.92
2017-08-05T17:48:29.165Z,100233.12
2017-08-05T17:51:31.260Z,100236.09
2017-08-05T17:54:32.635Z,100241.28
2017-08-05T17:57:34.001Z,100246.41
2017-08-05T18:00:35.451Z,100246.05
2017-08-05T18:03:36.983Z,100249.03
2017-08-05T18:06:38.346Z,100251.34
2017-08-05T18:09:39.943Z,100252.79
2017-08-05T18:12:42.023Z,100259.16
2017-08-05T18:15:43.444Z,100255.34
2017-08-05T18:18:44.815Z,100258.17
2017-08-05T18:21:46.196Z,100256.81
2017-08-05T18:24:47.561Z,100251.11
2017-08-05T18:27:48.920Z,100257.03
2017-08-05T18:30:50.280Z,100270.83
2017-08-05T18:33:51.653Z,100276.52
2017-08-05T18:36:53.781Z,100280.00
2017-08-05T18:39:55.199Z,100281.50
2017-08-05T18:42:56.701Z,100289.48
2017-08-05T18:45:58.081Z,100297.58
2017-08-05T18:49:00.253Z,100289.84
2017-08-05T18:52:02.354Z,100290.88
2017-08-05T18:55:03.739Z,100296.07
2017-08-05T18:58:05.147Z,100299.70
2017-08-05T19:01:06.552Z,100302.16
2017-08-05T19:04:07.901Z,100296.84
2017-08-05T19:07:09.305Z,100316.09
2017-08-05T19:10:10.676Z,100321.70
2017-08-05T19:13:12.079Z,100317.73
2017-08-05T19:16:13.456Z,100317.30
2017-08-05T19:19:14.857Z,100311.45
2017-08-05T19:22:16.209Z,100320.89
2017-08-05T19:25:17.646Z,100338.75
2017-08-05T19:28:19.014Z,100335.38
2017-08-05T19:31:20.428Z,100336.04
2017-08-05T19:34:21.824Z,100335.38
2017-08-05T19:37:23.274Z,100334.09
2017-08-05T19:40:24.782Z,100341.48
2017-08-05T19:43:26.352Z,100336.05
2017-08-05T19:46:28.023Z,100340.18
2017-08-05T19:49:29.539Z,100338.11
2017-08-05T19:52:31.080Z,100344.40
2017-08-05T19:55:32.564Z,100344.06
2017-08-05T19:58:34.086Z,100347.44
2017-08-05T20:01:35.586Z,100354.70
2017-08-05T20:04:37.061Z,100361.63
2017-08-05T20:07:39.296Z,100371.89
2017-08-05T20:10:40.776Z,100380.77
2017-08-05T20:13:43.016Z,100380.20
2017-08-05T20:16:44.511Z,100382.00
2017-08-05T20:19:46.885Z,100367.58
2017-08-05T20:22:48.368Z,100368.55
2017-08-05T20:25:49.901Z,100371.96
2017-08-05T20:28:51.440Z,100370.62
2017-08-05T20:31:53.692Z,100375.27
2017-08-05T20:34:55.172Z,100370.70
2017-08-05T20:37:57.404Z,100387.38
2017-08-05T20:40:58.899Z,100390.39
2017-08-05T20:44:00.410Z,100389.16
2017-08-05T20:47:01.995Z,100395.46
2017-08-05T20:50:04.278Z,100392.16
2017-08-05T20:53:05.910Z,100385.56
2017-08-05T20:56:07.429Z,100390.73
2017-08-05T20:59:08.948Z,100394.27
2017-08-05T21:02:10.425Z,100389.67
2017-08-05T21:05:11.978Z,100403.80
2017-08-05T21:08:13.452Z,100397.58
2017-08-05T21:11:14.981Z,100403.36
2017-08-05T21:14:16.433Z,100399.45
2017-08-05T21:17:17.946Z,100403.08
2017-08-05T21:20:19.471Z,100399.03
2017-08-05T21:23:21.027Z,100412.05
2017-08-05T21:26:22.744Z,100410.98
2017-08-05T21:29:24.193Z,100413.87
2017-08-05T21:32:25.687Z,100409.46
2017-08-05T21:35:27.126Z,100411.64
2017-08-05T21:38:28.641Z,100410.16
2017-08-05T21:41:30.131Z,100405.52
2017-08-05T21:44:31.686Z,100407.30
2017-08-05T21:47:33.204Z,100409.53
2017-08-05T21:50:35.458Z,100413.02
2017-08-05T21:53:37.849Z,100416.71
2017-08-05T21:56:40.072Z,100413.61
2017-08-05T21:59:41.590Z,100417.11
2017-08-05T22:02:43.197Z,100413.51
2017-08-05T22:05:44.720Z,100425.77
2017-08-05T22:08:46.263Z,100424.48
2017-08-05T22:11:47.703Z,100417.35
2017-08-05T22:14:49.895Z,100431.22
2017-08-05T22:17:51.483Z,100428.19
2017-08-05T22:20:53.055Z,100436.78
2017-08-05T22:23:54.534Z,100438.68
2017-08-05T22:26:56.763Z,100448.34
2017-08-05T22:29:58.391Z,100447.82
2017-08-05T22:32:59.832Z,100452.38
2017-08-05T22:36:01.299Z,100459.17
2017-08-05T22:39:03.140Z,100459.04
2017-08-05T22:42:04.683Z,100466.53
2017-08-05T22:45:07.023Z,100478.42
2017-08-05T22:48:08.563Z,100475.11
2017-08-05T22:51:10.060Z,100477.89
2017-08-05T22:54:12.269Z,100473.06
2017-08-05T22:57:13.782Z,100480.45
2017-08-05T23:00:16.046Z,100469.81
2017-08-05T23:03:18.298Z,100479.16
2017-08-05T23:06:19.806Z,100482.86
2017-08-05T23:09:28.280Z,100479.98
2017-08-05T23:12:30.076Z,100481.16
2017-08-05T23:15:31.600Z,100490.92
2017-08-05T23:18:33.225Z,100488.52
2017-08-05T23:21:34.737Z,100490.09
2017-08-05T23:24:37.012Z,100490.25
2017-08-05T23:27:39.220Z,100494.17
2017-08-05T23:30:40.740Z,100492.86
2017-08-05T23:33:43.016Z,100502.60
2017-08-05T23:36:44.502Z,100504.13
2017-08-05T23:39:45.961Z,100502.92
2017-08-05T23:42:47.507Z,100499.00
2017-08-05T23:45:48.972Z,100498.11
2017-08-05T23:48:50.558Z,100505.47
2017-08-05T23:51:52.069Z,100522.02
2017-08-05T23:54:53.619Z,100518.06
2017-08-05T23:57:55.174Z,100514.77
